Decoded Metar for USSS (SVERDLOVSK in RUSSIA) (IATA:SVX) | Meteo·Mobile Aviation Weather
aviador You're here:

USSS Decoded Metar

SVERDLOVSK in RUSSIA
Report Time2019-07-23 22:00:00
UTC Time2019-07-23 22:18:58
Flight Rules mvfr MVFR
Wind320° at 6 kt
W.Decomp.*RWY 26: 4.2 kt HW 4.3 kt RCW
Visibility9999 m
Phenomena:N/A
Clouds:Scattered 006 Hf
Broken 011 Hf
Ceiling1,100 ft
Temp16°C (ISA +3)
Dew Point16°C (100% RH)
AAT15.8°C
QNH1009 hPa
Density Alt1,440 ft
Elevation764 ft
Report Wrong Elevation
Raw Report
USSS 232200Z 32003MPS 9999 SCT006 BKN011 16/16 Q1009 R26R/290335
TEMPO VV004 RMK QFE736/0982=

Extra information for USSS:More info

Metar Taf Metar & Taf Last 4 Metars F.Rules Stats Wind Profile Meteogram Temp Stats Airport Information Weather charts Add Link Nearby VenuesMetar ALERT Operation Metar Decoded Social comments